Time;durP1;ratioP1;P1;durP2;ratioP2;P2;SDS_P1;SDS_P2;PMS_P1;PMS_P2;Temp;Humidity;BMP_temperature;BMP_pressure;BME280_temperature;BME280_humidity;BME280_pressure;Samples;Min_cycle;Max_cycle;Signal;HPM_P1;HPM_P2
2023/06/09 00:01:53;;;;;;;;;;;;;;;31.31;33.08;97939.53;5071156;28;19975;-89
2023/06/09 00:04:20;;;;;;;;;;;;;;;31.37;33.19;97942.44;5051590;28;20376;-88
2023/06/09 00:06:46;;;;;;;;;;;;;;;31.63;33.03;97937.03;5072192;28;20406;-88
2023/06/09 00:09:13;;;;;;;;;;;;;;;31.79;32.26;97936.53;5053372;28;20003;-88
2023/06/09 00:11:39;;;;;;;;;;;;;;;31.66;32.42;97933.22;5071256;28;19931;-88
2023/06/09 00:14:05;;;;;;;;;;;;;;;31.52;32.28;97928.31;5072486;28;19928;-88
2023/06/09 00:16:32;;;;;;;;;;;;;;;31.49;32.18;97929.28;5071454;28;19931;-88
2023/06/09 00:19:01;;;;;;;;;;;;;;;31.35;32.11;97925.13;5072683;28;20273;-88
2023/06/09 00:21:27;;;;;;;;;;;;;;;31.46;31.75;97927.44;5067766;28;20354;-88
2023/06/09 00:23:55;;;;;;;;;;;;;;;31.75;31.71;97928.22;5070335;28;19920;-88
2023/06/09 00:26:22;;;;;;;;;;;;;;;32.02;31.29;97927.16;5053965;28;19924;-88
2023/06/09 00:28:48;;;;;;;;;;;;;;;32.18;31.62;97925.84;5072892;28;19932;-88
2023/06/09 00:31:14;;;;;;;;;;;;;;;32.12;30.89;97931.44;5072330;28;19921;-88
2023/06/09 00:33:40;;;;;;;;;;;;;;;31.80;31.36;97933.22;5072478;28;19932;-88
2023/06/09 00:36:07;;;;;;;;;;;;;;;31.59;31.74;97934.38;5072560;28;20373;-87
2023/06/09 00:38:34;;;;;;;;;;;;;;;31.17;32.83;97928.16;5070885;28;19921;-88
2023/06/09 00:41:00;;;;;;;;;;;;;;;30.86;33.04;97922.06;5055770;28;19972;-88
2023/06/09 00:43:26;;;;;;;;;;;;;;;30.81;33.30;97917.84;5072048;28;19943;-87
2023/06/09 00:45:53;;;;;;;;;;;;;;;30.98;33.35;97916.19;5079107;28;19921;-87
2023/06/09 00:48:19;;;;;;;;;;;;;;;31.07;33.12;97909.63;5070982;28;19944;-87
2023/06/09 00:50:45;;;;;;;;;;;;;;;31.39;32.81;97914.41;5071451;28;19966;-88
2023/06/09 00:53:12;;;;;;;;;;;;;;;31.46;32.66;97914.00;5075670;28;19957;-88
2023/06/09 00:55:39;;;;;;;;;;;;;;;31.48;32.65;97910.69;5080832;28;19931;-88
2023/06/09 00:58:06;;;;;;;;;;;;;;;31.68;32.20;97922.94;5070523;28;20345;-87
2023/06/09 01:00:33;;;;;;;;;;;;;;;31.89;31.80;97909.59;5072346;28;19920;-88
2023/06/09 01:03:00;;;;;;;;;;;;;;;31.65;32.58;97917.47;5072298;28;19920;-88
2023/06/09 01:05:32;;;;;;;;;;;;;;;31.49;32.72;97912.25;5074307;28;20438;-88
2023/06/09 01:08:05;;;;;;;;;;;;;;;31.53;33.05;97904.34;5082275;28;20367;-88
2023/06/09 01:10:34;;;;;;;;;;;;;;;31.53;33.12;97910.78;5057779;28;19967;-87
2023/06/09 01:13:09;;;;;;;;;;;;;;;31.87;32.27;97904.41;5075137;28;20384;-85
2023/06/09 01:15:41;;;;;;;;;;;;;;;32.14;31.49;97906.16;5075088;28;19989;-86
2023/06/09 01:18:08;;;;;;;;;;;;;;;32.13;31.46;97904.59;5071201;28;19927;-88
2023/06/09 01:20:45;;;;;;;;;;;;;;;32.08;31.47;97900.41;5075763;28;19971;-87
2023/06/09 01:23:18;;;;;;;;;;;;;;;32.30;30.90;97902.00;5078652;28;19925;-87
2023/06/09 01:25:47;;;;;;;;;;;;;;;32.44;30.82;97907.63;5082027;28;19963;-87
2023/06/09 01:28:20;;;;;;;;;;;;;;;32.04;31.46;97908.31;5079135;28;19942;-87
2023/06/09 01:30:48;;;;;;;;;;;;;;;31.94;31.70;97898.34;5074546;28;19951;-87
2023/06/09 01:33:16;;;;;;;;;;;;;;;32.20;31.32;97894.88;5074229;28;20053;-87
2023/06/09 01:35:43;;;;;;;;;;;;;;;32.34;31.09;97885.53;5059180;28;20260;-86
2023/06/09 01:38:10;;;;;;;;;;;;;;;32.23;31.65;97891.06;5075533;28;20388;-87
2023/06/09 01:40:37;;;;;;;;;;;;;;;32.21;30.92;97885.84;5075302;28;20288;-87
2023/06/09 01:43:04;;;;;;;;;;;;;;;32.34;30.78;97892.00;5073363;28;20338;-87
2023/06/09 01:45:30;;;;;;;;;;;;;;;32.43;30.80;97888.22;5083926;28;19917;-87
2023/06/09 01:47:57;;;;;;;;;;;;;;;32.47;30.96;97885.94;5073867;28;19920;-87
2023/06/09 01:50:46;;;;;;;;;;;;;;;32.51;30.33;97889.41;5074873;28;19967;-87
2023/06/09 01:53:14;;;;;;;;;;;;;;;32.48;30.24;97890.38;5066977;28;19920;-87
2023/06/09 01:55:44;;;;;;;;;;;;;;;32.52;30.33;97891.75;5074777;28;19934;-87
2023/06/09 01:58:16;;;;;;;;;;;;;;;32.66;30.41;97892.97;5074753;28;19927;-87
2023/06/09 02:00:44;;;;;;;;;;;;;;;32.47;30.15;97883.91;5074617;28;20014;-87
2023/06/09 02:03:11;;;;;;;;;;;;;;;32.46;30.42;97878.72;5057068;28;20031;-88
2023/06/09 02:05:37;;;;;;;;;;;;;;;31.60;31.93;97881.25;5074665;28;19963;-87
2023/06/09 02:08:04;;;;;;;;;;;;;;;30.99;33.34;97878.06;5074797;28;19921;-87
2023/06/09 02:10:31;;;;;;;;;;;;;;;31.23;32.88;97869.44;5074938;28;19920;-88
2023/06/09 02:12:57;;;;;;;;;;;;;;;31.68;32.01;97868.22;5078329;28;19920;-87
2023/06/09 02:15:23;;;;;;;;;;;;;;;32.04;31.68;97873.47;5074111;28;19927;-87
2023/06/09 02:17:49;;;;;;;;;;;;;;;32.26;31.22;97868.09;5073503;28;19921;-87
2023/06/09 02:20:15;;;;;;;;;;;;;;;32.42;30.89;97876.06;5049968;28;19921;-87
2023/06/09 02:22:41;;;;;;;;;;;;;;;32.54;30.82;97874.19;5073833;28;19931;-87
2023/06/09 02:25:08;;;;;;;;;;;;;;;32.61;30.44;97876.59;5074453;28;19920;-87
2023/06/09 02:27:34;;;;;;;;;;;;;;;32.63;30.15;97871.19;5078680;28;19957;-84
2023/06/09 02:30:00;;;;;;;;;;;;;;;32.67;30.21;97869.69;5073630;28;19970;-86
2023/06/09 02:32:26;;;;;;;;;;;;;;;32.32;30.38;97859.66;5072867;28;19920;-88
2023/06/09 02:34:52;;;;;;;;;;;;;;;31.76;31.04;97869.38;5048116;28;20389;-88
2023/06/09 02:37:18;;;;;;;;;;;;;;;31.39;31.53;97869.00;5073521;28;20070;-88
2023/06/09 02:39:44;;;;;;;;;;;;;;;31.07;32.33;97867.88;5073798;28;19999;-87
2023/06/09 02:42:10;;;;;;;;;;;;;;;30.83;32.80;97866.34;5072019;28;20059;-87
2023/06/09 02:44:41;;;;;;;;;;;;;;;30.67;33.48;97867.56;5073316;28;19939;-87
2023/06/09 02:48:21;;;;;;;;;;;;;;;30.37;34.03;97875.19;5089693;28;19924;-89
2023/06/09 02:50:47;;;;;;;;;;;;;;;30.44;34.01;97874.81;5090306;28;19940;-88
2023/06/09 02:53:13;;;;;;;;;;;;;;;30.56;33.74;97873.78;5090775;28;19928;-88
2023/06/09 02:55:44;;;;;;;;;;;;;;;30.48;33.73;97878.25;5090022;28;20026;-89
2023/06/09 02:58:14;;;;;;;;;;;;;;;30.44;34.08;97880.50;5085697;28;20316;-88
2023/06/09 03:00:41;;;;;;;;;;;;;;;30.68;33.57;97877.66;5090046;28;19956;-88
2023/06/09 03:03:08;;;;;;;;;;;;;;;30.93;33.04;97873.53;5089968;28;19927;-88
2023/06/09 03:05:40;;;;;;;;;;;;;;;31.34;32.59;97878.94;5087234;28;19924;-88
2023/06/09 03:08:07;;;;;;;;;;;;;;;31.72;31.79;97880.13;5091244;28;19921;-84
2023/06/09 03:10:33;;;;;;;;;;;;;;;31.86;32.04;97882.97;5090406;28;20388;-83
2023/06/09 03:12:59;;;;;;;;;;;;;;;31.96;31.59;97881.59;5090189;28;20440;-83
2023/06/09 03:15:25;;;;;;;;;;;;;;;31.99;31.82;97891.22;5086558;28;19999;-85
2023/06/09 03:17:51;;;;;;;;;;;;;;;31.71;31.72;97892.78;5089754;28;19925;-84
2023/06/09 03:20:19;;;;;;;;;;;;;;;31.37;32.49;97892.16;5087155;28;19920;-84
2023/06/09 03:22:45;;;;;;;;;;;;;;;31.39;32.33;97892.47;5089909;28;20307;-84
2023/06/09 03:25:12;;;;;;;;;;;;;;;31.40;32.58;97899.72;5090430;28;19924;-85
2023/06/09 03:27:38;;;;;;;;;;;;;;;31.39;32.74;97897.38;5089855;28;20011;-84
2023/06/09 03:30:05;;;;;;;;;;;;;;;31.44;32.74;97905.22;5090090;28;20283;-84
2023/06/09 03:32:31;;;;;;;;;;;;;;;31.44;32.84;97908.03;5083986;28;20003;-86
2023/06/09 03:34:57;;;;;;;;;;;;;;;31.46;33.20;97910.41;5086805;28;20401;-86
2023/06/09 03:37:23;;;;;;;;;;;;;;;31.32;33.72;97914.78;5089249;28;19966;-86
2023/06/09 03:39:50;;;;;;;;;;;;;;;31.37;33.25;97914.06;5089224;28;19920;-86
2023/06/09 03:42:16;;;;;;;;;;;;;;;31.39;33.73;97917.22;5090059;28;19916;-86
2023/06/09 03:44:42;;;;;;;;;;;;;;;31.52;33.34;97922.63;5087337;28;19923;-89
2023/06/09 03:47:09;;;;;;;;;;;;;;;31.78;32.87;97920.78;5088719;28;19943;-89
2023/06/09 03:49:36;;;;;;;;;;;;;;;31.92;32.97;97917.94;5086496;28;19945;-88
2023/06/09 03:52:02;;;;;;;;;;;;;;;31.50;33.24;97917.47;5088052;28;20372;-88
2023/06/09 03:54:28;;;;;;;;;;;;;;;31.10;34.32;97912.28;5086825;28;19928;-88
2023/06/09 03:56:54;;;;;;;;;;;;;;;31.12;34.22;97920.31;5087325;28;20042;-88
2023/06/09 03:59:20;;;;;;;;;;;;;;;31.64;33.62;97925.19;5076313;28;19920;-88
2023/06/09 04:01:48;;;;;;;;;;;;;;;32.10;32.62;97916.94;5074086;28;19947;-88
2023/06/09 04:04:14;;;;;;;;;;;;;;;32.35;32.15;97915.50;5076862;28;19931;-88
2023/06/09 04:06:45;;;;;;;;;;;;;;;31.70;33.18;97926.06;5073667;28;19921;-88
2023/06/09 04:09:12;;;;;;;;;;;;;;;31.51;34.05;97916.16;5076417;28;19916;-89
2023/06/09 04:11:39;;;;;;;;;;;;;;;31.44;34.28;97916.56;5075349;28;20006;-88
2023/06/09 04:14:05;;;;;;;;;;;;;;;31.48;34.25;97916.38;5075846;28;19917;-89
2023/06/09 04:16:32;;;;;;;;;;;;;;;31.42;34.15;97919.91;5075128;28;19921;-88
2023/06/09 04:18:58;;;;;;;;;;;;;;;31.46;34.44;97919.69;5076101;28;19921;-88
2023/06/09 04:21:24;;;;;;;;;;;;;;;31.78;33.35;97917.94;5075517;28;19929;-88
2023/06/09 04:23:50;;;;;;;;;;;;;;;31.77;33.34;97917.16;5074865;28;19962;-88
2023/06/09 04:26:16;;;;;;;;;;;;;;;31.64;33.71;97919.50;5074834;28;19920;-88
2023/06/09 04:28:42;;;;;;;;;;;;;;;31.46;34.50;97919.69;5075918;28;19928;-89
2023/06/09 04:31:09;;;;;;;;;;;;;;;31.36;34.28;97909.69;5076782;28;19920;-88
2023/06/09 04:33:36;;;;;;;;;;;;;;;31.38;34.51;97913.59;5087444;28;19916;-89
2023/06/09 04:36:05;;;;;;;;;;;;;;;31.39;34.61;97908.72;5074315;28;19924;-89
2023/06/09 04:38:34;;;;;;;;;;;;;;;31.32;34.17;97912.72;5074622;28;19955;-89
2023/06/09 04:41:02;;;;;;;;;;;;;;;31.10;34.54;97909.47;5064694;28;19967;-89
2023/06/09 04:43:29;;;;;;;;;;;;;;;30.83;35.31;97914.53;5073641;28;19927;-89
2023/06/09 04:45:56;;;;;;;;;;;;;;;30.88;35.19;97902.53;5074249;28;19920;-91
2023/06/09 04:48:22;;;;;;;;;;;;;;;30.99;35.06;97908.47;5072107;28;20395;-89
2023/06/09 04:50:49;;;;;;;;;;;;;;;30.50;36.07;97909.72;5070893;28;20464;-89
2023/06/09 04:53:15;;;;;;;;;;;;;;;30.94;35.43;97904.25;5071277;28;19920;-89
2023/06/09 04:55:41;;;;;;;;;;;;;;;30.90;34.97;97917.03;5073942;28;19966;-89
2023/06/09 04:58:07;;;;;;;;;;;;;;;30.60;35.66;97919.72;5065293;28;19920;-88
2023/06/09 05:00:35;;;;;;;;;;;;;;;30.33;36.50;97919.91;5071841;28;20018;-90
2023/06/09 05:03:02;;;;;;;;;;;;;;;30.25;36.34;97923.53;5071581;28;19989;-88
2023/06/09 05:05:29;;;;;;;;;;;;;;;30.08;36.98;97920.34;5074425;28;20406;-88
2023/06/09 05:07:57;;;;;;;;;;;;;;;29.85;37.26;97913.34;5070679;28;19931;-89
2023/06/09 05:10:23;;;;;;;;;;;;;;;30.23;36.78;97920.41;5055500;28;19924;-88
2023/06/09 05:12:49;;;;;;;;;;;;;;;29.69;37.91;97916.50;5072294;28;19923;-88
2023/06/09 05:15:16;;;;;;;;;;;;;;;29.89;37.48;97916.78;5062664;28;19924;-87
2023/06/09 05:17:42;;;;;;;;;;;;;;;29.75;38.01;97916.66;5071308;28;19924;-89
2023/06/09 05:20:11;;;;;;;;;;;;;;;29.08;39.40;97928.22;5073103;28;19960;-88
2023/06/09 05:22:43;;;;;;;;;;;;;;;28.93;39.96;97932.94;5074539;28;19916;-87
2023/06/09 05:25:09;;;;;;;;;;;;;;;29.86;38.24;97916.94;5073666;28;20371;-90
2023/06/09 05:27:38;;;;;;;;;;;;;;;30.52;36.94;97912.09;5060003;28;19970;-87
2023/06/09 05:30:07;;;;;;;;;;;;;;;30.94;36.41;97914.78;5071430;28;19921;-88
2023/06/09 05:32:33;;;;;;;;;;;;;;;31.19;35.63;97915.03;5069380;28;19921;-88
2023/06/09 05:35:00;;;;;;;;;;;;;;;31.21;35.29;97914.53;5056444;28;20301;-88
2023/06/09 05:37:26;;;;;;;;;;;;;;;30.69;36.08;97910.41;5067675;28;19920;-89
2023/06/09 05:39:53;;;;;;;;;;;;;;;30.38;37.01;97916.44;5070968;28;19924;-88
2023/06/09 05:42:19;;;;;;;;;;;;;;;29.86;38.10;97914.91;5067657;28;19965;-88
2023/06/09 05:44:45;;;;;;;;;;;;;;;30.54;37.00;97918.84;5068320;28;19917;-87
2023/06/09 05:47:17;;;;;;;;;;;;;;;30.17;37.25;97913.84;5063544;28;20476;-88
2023/06/09 05:49:50;;;;;;;;;;;;;;;30.18;37.36;97919.00;5059052;28;19921;-88
2023/06/09 05:55:58;;;;;;;;;;;;;;;29.77;38.46;97917.00;5054623;28;19921;-88
2023/06/09 06:01:42;;;;;;;;;;;;;;;31.31;36.30;97918.88;5056546;28;19999;-87
2023/06/09 06:04:08;;;;;;;;;;;;;;;31.54;35.81;97914.41;5071684;28;19919;-88
2023/06/09 06:06:38;;;;;;;;;;;;;;;32.00;35.20;97924.78;5068178;28;19978;-89
2023/06/09 06:09:04;;;;;;;;;;;;;;;31.81;35.29;97931.16;5057698;28;19932;-88
2023/06/09 06:11:38;;;;;;;;;;;;;;;32.12;34.31;97928.59;5070986;28;19935;-88
2023/06/09 06:14:04;;;;;;;;;;;;;;;32.23;34.13;97928.00;5065460;28;19920;-89
2023/06/09 06:16:30;;;;;;;;;;;;;;;32.25;33.86;97937.59;5058731;28;19927;-88
2023/06/09 06:18:58;;;;;;;;;;;;;;;31.76;35.23;97938.31;5068052;28;19924;-88
2023/06/09 06:21:24;;;;;;;;;;;;;;;31.70;34.84;97937.41;5065063;28;19963;-89
2023/06/09 06:24:10;;;;;;;;;;;;;;;31.87;34.96;97944.19;5053049;28;19921;-89
2023/06/09 06:26:39;;;;;;;;;;;;;;;31.36;36.00;97938.84;5058192;28;19964;-87
2023/06/09 06:29:06;;;;;;;;;;;;;;;31.42;35.40;97941.78;5051205;28;19951;-87
2023/06/09 06:31:32;;;;;;;;;;;;;;;31.81;35.75;97937.59;5051949;28;20003;-88
2023/06/09 06:33:58;;;;;;;;;;;;;;;31.80;34.79;97944.56;5062458;28;19920;-87
2023/06/09 06:36:26;;;;;;;;;;;;;;;32.09;35.00;97943.78;5063083;28;19932;-86
2023/06/09 06:38:52;;;;;;;;;;;;;;;32.39;34.59;97942.44;5059873;28;20493;-87
2023/06/09 06:41:20;;;;;;;;;;;;;;;32.07;34.62;97946.31;5062789;28;19926;-86
2023/06/09 06:43:51;;;;;;;;;;;;;;;31.60;34.99;97946.53;5064816;28;20011;-87
2023/06/09 06:46:18;;;;;;;;;;;;;;;31.18;35.78;97944.66;5068363;28;19938;-88
2023/06/09 06:48:53;;;;;;;;;;;;;;;30.14;38.17;97941.06;5063477;28;20445;-87
2023/06/09 06:51:22;;;;;;;;;;;;;;;30.08;38.74;97945.81;5066047;28;19924;-87
2023/06/09 06:54:06;;;;;;;;;;;;;;;30.50;37.86;97932.38;5064609;28;19920;-86
2023/06/09 06:56:52;;;;;;;;;;;;;;;31.42;36.85;97939.75;5062600;28;19936;-86
2023/06/09 06:59:34;;;;;;;;;;;;;;;31.77;35.34;97947.59;5066427;28;19916;-85
2023/06/09 07:02:27;;;;;;;;;;;;;;;32.17;34.55;97941.31;5061449;28;20007;-86
2023/06/09 07:04:56;;;;;;;;;;;;;;;31.77;35.16;97948.38;5062435;28;19928;-86
2023/06/09 07:07:45;;;;;;;;;;;;;;;31.53;35.32;97946.91;5066928;28;19960;-87
2023/06/09 07:10:16;;;;;;;;;;;;;;;30.29;38.22;97956.09;5061045;28;20445;-87
2023/06/09 07:12:45;;;;;;;;;;;;;;;30.03;38.65;97946.47;5060001;28;19924;-87
2023/06/09 07:15:11;;;;;;;;;;;;;;;29.56;39.73;97955.53;5070034;28;19924;-89
2023/06/09 07:17:40;;;;;;;;;;;;;;;30.08;39.17;97943.75;5061857;28;19921;-88
2023/06/09 07:20:06;;;;;;;;;;;;;;;29.98;39.17;97949.94;5063983;28;19928;-85
2023/06/09 07:22:33;;;;;;;;;;;;;;;29.94;39.05;97947.25;5071453;28;19916;-87
2023/06/09 07:25:00;;;;;;;;;;;;;;;30.22;39.11;97947.97;5063607;28;19928;-83
2023/06/09 07:27:26;;;;;;;;;;;;;;;29.86;39.26;97948.09;5071360;28;19935;-86
2023/06/09 07:29:52;;;;;;;;;;;;;;;30.35;38.42;97944.91;5066083;28;19920;-86
2023/06/09 07:32:19;;;;;;;;;;;;;;;29.78;39.96;97944.81;5060545;28;19989;-85
2023/06/09 07:34:45;;;;;;;;;;;;;;;29.71;40.13;97942.28;5068189;28;20291;-86
2023/06/09 07:37:13;;;;;;;;;;;;;;;30.41;38.77;97948.69;5072879;28;19939;-87
2023/06/09 07:39:39;;;;;;;;;;;;;;;30.79;38.06;97948.75;5073997;28;19920;-89
2023/06/09 07:42:06;;;;;;;;;;;;;;;30.62;37.92;97951.22;5075015;28;19920;-85
2023/06/09 07:47:34;;;;;;;;;;;;;;;30.35;38.57;97940.03;5066184;28;19932;-87
2023/06/09 07:50:00;;;;;;;;;;;;;;;30.63;38.68;97941.44;5073307;28;19959;-87
2023/06/09 07:52:26;;;;;;;;;;;;;;;31.17;37.11;97939.50;5071881;28;20073;-86
2023/06/09 07:54:52;;;;;;;;;;;;;;;30.62;38.18;97942.72;5073893;28;19920;-86
2023/06/09 07:57:18;;;;;;;;;;;;;;;30.81;37.91;97932.03;5068250;28;19932;-85
2023/06/09 07:59:47;;;;;;;;;;;;;;;30.21;39.02;97937.09;5070996;28;20261;-88
2023/06/09 08:02:13;;;;;;;;;;;;;;;30.53;38.53;97933.47;5069165;28;19946;-87
2023/06/09 08:04:42;;;;;;;;;;;;;;;31.99;36.64;97940.28;5065558;28;19920;-86
2023/06/09 08:07:09;;;;;;;;;;;;;;;31.08;37.38;97923.34;5075070;28;19921;-87
2023/06/09 08:09:35;;;;;;;;;;;;;;;32.01;36.94;97932.03;5074846;28;19920;-85
2023/06/09 08:12:10;;;;;;;;;;;;;;;31.53;37.06;97933.50;5075032;28;19921;-89
2023/06/09 08:14:36;;;;;;;;;;;;;;;32.45;35.32;97928.31;5073328;28;20346;-85
2023/06/09 08:17:03;;;;;;;;;;;;;;;32.77;34.03;97932.16;5073383;28;20312;-85
2023/06/09 08:19:29;;;;;;;;;;;;;;;33.50;33.15;97929.66;5072909;28;19960;-84
2023/06/09 08:21:57;;;;;;;;;;;;;;;33.61;33.08;97926.94;5069682;28;19990;-83
2023/06/09 08:24:28;;;;;;;;;;;;;;;34.10;32.48;97928.69;5070622;28;19985;-86
2023/06/09 08:26:56;;;;;;;;;;;;;;;34.00;31.84;97924.44;5062101;28;20007;-85
2023/06/09 08:29:25;;;;;;;;;;;;;;;33.54;32.55;97918.84;5067795;28;20015;-85
2023/06/09 08:31:51;;;;;;;;;;;;;;;34.08;31.50;97925.56;5058406;28;19928;-85
2023/06/09 08:34:17;;;;;;;;;;;;;;;33.87;32.56;97924.84;5064841;28;19925;-85
2023/06/09 08:36:43;;;;;;;;;;;;;;;34.51;30.96;97920.66;5065237;28;20353;-85
2023/06/09 08:39:12;;;;;;;;;;;;;;;33.38;33.61;97923.06;5061022;28;19920;-85
2023/06/09 08:41:39;;;;;;;;;;;;;;;32.37;34.58;97922.25;5063378;28;19971;-83
2023/06/09 08:44:05;;;;;;;;;;;;;;;32.45;33.74;97916.94;5072785;28;19931;-84
2023/06/09 08:46:33;;;;;;;;;;;;;;;32.66;34.28;97910.00;5076821;28;19989;-85
2023/06/09 08:49:02;;;;;;;;;;;;;;;32.96;34.13;97914.28;5069165;28;19924;-84
2023/06/09 08:51:28;;;;;;;;;;;;;;;33.72;32.02;97912.03;5068903;28;19930;-84
2023/06/09 08:54:01;;;;;;;;;;;;;;;34.40;30.68;97907.13;5069241;28;19927;-84
2023/06/09 08:56:28;;;;;;;;;;;;;;;34.29;30.95;97903.41;5064164;28;20010;-84
2023/06/09 08:58:54;;;;;;;;;;;;;;;32.69;33.45;97903.34;5075122;28;19921;-84
2023/06/09 09:01:23;;;;;;;;;;;;;;;33.43;32.52;97905.25;5071976;28;19920;-84
2023/06/09 09:03:50;;;;;;;;;;;;;;;34.64;31.06;97896.13;5070418;28;19927;-84
2023/06/09 09:06:16;;;;;;;;;;;;;;;35.32;30.73;97889.41;5074048;28;20279;-83
2023/06/09 09:08:43;;;;;;;;;;;;;;;34.92;30.54;97887.69;5072472;28;20331;-84
2023/06/09 09:11:10;;;;;;;;;;;;;;;34.62;31.98;97890.16;5074336;28;19995;-84
2023/06/09 09:13:36;;;;;;;;;;;;;;;34.56;32.22;97883.66;5071296;28;20292;-84
2023/06/09 09:16:02;;;;;;;;;;;;;;;34.99;30.06;97875.00;5073708;28;19928;-84
2023/06/09 09:18:29;;;;;;;;;;;;;;;34.96;31.41;97885.38;5074207;28;19920;-84
2023/06/09 09:20:56;;;;;;;;;;;;;;;35.36;31.76;97878.50;5066786;28;19928;-84
2023/06/09 09:23:32;;;;;;;;;;;;;;;34.61;30.67;97885.75;5059554;28;19935;-84
2023/06/09 09:26:03;;;;;;;;;;;;;;;34.14;31.27;97872.25;5068073;28;19935;-83
2023/06/09 09:28:39;;;;;;;;;;;;;;;35.33;29.76;97880.34;5062740;28;19924;-83
2023/06/09 09:31:06;;;;;;;;;;;;;;;32.69;34.35;97881.38;5072263;28;20034;-85
2023/06/09 09:33:34;;;;;;;;;;;;;;;32.15;35.31;97878.53;5073497;28;19916;-84
2023/06/09 09:36:00;;;;;;;;;;;;;;;32.38;34.37;97880.41;5062745;28;19921;-84
2023/06/09 09:38:27;;;;;;;;;;;;;;;33.38;32.17;97871.03;5074042;28;19924;-84
2023/06/09 09:40:54;;;;;;;;;;;;;;;33.13;32.09;97872.63;5073385;28;20288;-84
2023/06/09 09:43:21;;;;;;;;;;;;;;;33.73;32.36;97874.50;5061670;28;19990;-84
2023/06/09 09:45:50;;;;;;;;;;;;;;;33.86;32.31;97868.38;5065486;28;19969;-83
2023/06/09 09:48:19;;;;;;;;;;;;;;;34.00;31.25;97868.22;5070179;28;19920;-85
2023/06/09 09:50:46;;;;;;;;;;;;;;;32.92;33.39;97871.06;5068511;28;19921;-83
2023/06/09 09:53:12;;;;;;;;;;;;;;;31.93;34.79;97851.31;5068501;28;19928;-84
2023/06/09 09:55:45;;;;;;;;;;;;;;;33.44;33.37;97846.25;5075010;28;20364;-87
2023/06/09 09:58:11;;;;;;;;;;;;;;;34.26;32.15;97842.50;5070820;28;20269;-85
2023/06/09 10:00:38;;;;;;;;;;;;;;;33.81;31.24;97841.41;5083340;28;20019;-85
2023/06/09 10:06:18;;;;;;;;;;;;;;;34.02;31.75;97844.94;5065201;28;19925;-85
2023/06/09 10:08:45;;;;;;;;;;;;;;;33.83;31.68;97843.75;5062641;28;19973;-86
2023/06/09 10:11:32;;;;;;;;;;;;;;;34.17;30.21;97834.16;5064538;28;20002;-86
2023/06/09 10:13:59;;;;;;;;;;;;;;;34.85;29.76;97836.03;5068698;28;19920;-86
2023/06/09 10:16:28;;;;;;;;;;;;;;;35.21;27.59;97833.06;5067396;28;19993;-85
2023/06/09 10:18:55;;;;;;;;;;;;;;;35.25;29.72;97827.09;5063882;28;19924;-83
2023/06/09 10:21:49;;;;;;;;;;;;;;;35.08;29.22;97823.44;5057218;28;19923;-86
2023/06/09 10:24:26;;;;;;;;;;;;;;;35.37;28.77;97820.88;5074303;28;19920;-85
2023/06/09 10:26:52;;;;;;;;;;;;;;;34.90;30.43;97815.31;5080414;28;19920;-85
2023/06/09 10:29:19;;;;;;;;;;;;;;;33.71;32.04;97822.94;5058028;28;19942;-85
2023/06/09 10:31:46;;;;;;;;;;;;;;;32.82;33.16;97826.19;5071843;28;20376;-86
2023/06/09 10:34:14;;;;;;;;;;;;;;;32.71;32.20;97827.63;5058661;28;20067;-86
2023/06/09 10:36:41;;;;;;;;;;;;;;;33.06;30.71;97819.00;5062635;28;20292;-86
2023/06/09 10:39:22;;;;;;;;;;;;;;;33.81;29.83;97821.47;5069603;28;19931;-86
2023/06/09 10:41:53;;;;;;;;;;;;;;;34.63;27.69;97814.72;5070976;28;19921;-85
2023/06/09 10:44:29;;;;;;;;;;;;;;;34.88;28.45;97821.53;5069747;28;19925;-85
2023/06/09 10:46:55;;;;;;;;;;;;;;;34.11;29.59;97824.81;5055844;28;19920;-85
2023/06/09 10:49:37;;;;;;;;;;;;;;;34.01;29.31;97831.97;5060630;28;19921;-84
2023/06/09 10:52:04;;;;;;;;;;;;;;;34.54;29.54;97837.00;5058399;28;19925;-85
2023/06/09 10:54:32;;;;;;;;;;;;;;;34.52;28.69;97840.34;5061264;28;19943;-85
2023/06/09 10:57:00;;;;;;;;;;;;;;;34.36;29.67;97846.72;5060493;28;19921;-86
2023/06/09 10:59:34;;;;;;;;;;;;;;;35.01;29.34;97846.75;5068851;28;19942;-84
2023/06/09 11:02:03;;;;;;;;;;;;;;;34.69;29.20;97837.56;5067478;28;19920;-85
2023/06/09 11:04:49;;;;;;;;;;;;;;;33.87;30.07;97844.28;5072690;28;19920;-85
2023/06/09 11:07:16;;;;;;;;;;;;;;;33.94;30.44;97829.59;5071874;28;20387;-85
2023/06/09 11:09:51;;;;;;;;;;;;;;;33.72;30.41;97835.13;5074981;28;19920;-84
2023/06/09 11:12:35;;;;;;;;;;;;;;;33.63;30.96;97849.56;5075264;28;19924;-86
2023/06/09 11:15:03;;;;;;;;;;;;;;;33.27;31.03;97836.78;5074910;28;19920;-86
2023/06/09 11:17:41;;;;;;;;;;;;;;;34.22;31.03;97836.25;5067615;28;19924;-85
2023/06/09 11:20:10;;;;;;;;;;;;;;;34.45;29.94;97834.34;5073106;28;19928;-85
2023/06/09 11:22:41;;;;;;;;;;;;;;;34.29;29.92;97846.41;5074633;28;19959;-86
2023/06/09 11:25:17;;;;;;;;;;;;;;;33.48;30.98;97837.47;5066978;28;19921;-87
2023/06/09 11:27:46;;;;;;;;;;;;;;;34.23;30.46;97837.84;5066669;28;20085;-87
2023/06/09 11:30:20;;;;;;;;;;;;;;;34.73;29.99;97832.38;5072494;28;19955;-87
2023/06/09 11:32:46;;;;;;;;;;;;;;;34.95;29.85;97835.31;5064063;28;20050;-88
2023/06/09 11:35:40;;;;;;;;;;;;;;;34.99;29.54;97840.75;5069134;28;19921;-88
2023/06/09 11:38:09;;;;;;;;;;;;;;;35.03;29.23;97829.91;5075853;28;20368;-88
2023/06/09 11:40:48;;;;;;;;;;;;;;;35.40;29.01;97834.09;5076750;28;19962;-88
2023/06/09 11:43:14;;;;;;;;;;;;;;;35.60;28.17;97840.91;5071850;28;20301;-88
2023/06/09 11:45:40;;;;;;;;;;;;;;;35.53;28.62;97845.06;5072535;28;19916;-87
2023/06/09 11:48:06;;;;;;;;;;;;;;;35.38;28.81;97847.38;5075047;28;19920;-87
2023/06/09 11:50:39;;;;;;;;;;;;;;;35.66;28.88;97850.28;5072534;28;19965;-86
2023/06/09 11:53:06;;;;;;;;;;;;;;;35.99;27.80;97839.59;5076640;28;19961;-87
2023/06/09 11:55:32;;;;;;;;;;;;;;;36.16;28.05;97842.44;5076336;28;19921;-87
2023/06/09 11:57:59;;;;;;;;;;;;;;;36.49;28.20;97835.88;5076262;28;19943;-86
2023/06/09 12:00:26;;;;;;;;;;;;;;;36.43;28.55;97843.69;5075490;28;20395;-87
2023/06/09 12:02:53;;;;;;;;;;;;;;;36.37;28.35;97840.03;5075124;28;19927;-87
2023/06/09 12:05:19;;;;;;;;;;;;;;;36.45;28.67;97836.16;5075948;28;19912;-88
2023/06/09 12:07:46;;;;;;;;;;;;;;;36.39;27.80;97837.44;5075668;28;19916;-87
2023/06/09 12:10:13;;;;;;;;;;;;;;;36.41;28.07;97827.03;5073383;28;19927;-88
2023/06/09 12:12:49;;;;;;;;;;;;;;;36.39;28.86;97825.97;5073384;28;19921;-86
2023/06/09 12:15:16;;;;;;;;;;;;;;;36.20;27.72;97814.34;5065992;28;19929;-86
2023/06/09 12:17:46;;;;;;;;;;;;;;;36.35;27.61;97811.97;5072440;28;19917;-86
2023/06/09 12:20:24;;;;;;;;;;;;;;;36.30;27.88;97809.91;5066801;28;20015;-86
2023/06/09 12:22:54;;;;;;;;;;;;;;;36.32;27.74;97803.66;5072128;28;19920;-88
2023/06/09 12:25:25;;;;;;;;;;;;;;;36.22;28.00;97811.75;5063294;28;19921;-87
2023/06/09 12:27:55;;;;;;;;;;;;;;;35.68;28.55;97813.38;5068378;28;19929;-86
2023/06/09 12:30:44;;;;;;;;;;;;;;;35.83;28.11;97813.88;5074571;28;19966;-86
2023/06/09 12:33:12;;;;;;;;;;;;;;;36.26;28.06;97818.00;5074626;28;19927;-86
2023/06/09 12:35:41;;;;;;;;;;;;;;;36.41;27.90;97826.25;5073653;28;20288;-86
2023/06/09 12:38:17;;;;;;;;;;;;;;;36.42;27.85;97825.72;5057021;28;19966;-86
2023/06/09 12:40:43;;;;;;;;;;;;;;;36.46;27.28;97826.25;5074516;28;20319;-86
2023/06/09 12:43:11;;;;;;;;;;;;;;;36.41;26.68;97832.75;5075502;28;19955;-86
2023/06/09 12:45:37;;;;;;;;;;;;;;;36.33;26.87;97828.09;5074720;28;20042;-86
2023/06/09 12:48:06;;;;;;;;;;;;;;;36.19;26.66;97826.31;5071558;28;19967;-87
2023/06/09 12:50:36;;;;;;;;;;;;;;;36.28;26.34;97829.69;5062386;28;19916;-86
2023/06/09 12:53:22;;;;;;;;;;;;;;;36.47;25.23;97829.91;5070584;28;20395;-87
2023/06/09 12:55:50;;;;;;;;;;;;;;;36.44;25.84;97825.19;5063803;28;19951;-86
2023/06/09 12:58:16;;;;;;;;;;;;;;;36.62;25.16;97827.47;5070282;28;19939;-85
2023/06/09 13:00:43;;;;;;;;;;;;;;;36.69;25.17;97822.00;5055863;28;20352;-85
2023/06/09 13:03:10;;;;;;;;;;;;;;;36.50;25.45;97814.56;5061938;28;19916;-86
2023/06/09 13:05:36;;;;;;;;;;;;;;;36.26;25.64;97814.34;5055139;28;20378;-86
2023/06/09 13:08:03;;;;;;;;;;;;;;;36.26;27.03;97805.75;5067164;28;19916;-86
2023/06/09 13:10:29;;;;;;;;;;;;;;;36.60;26.00;97795.78;5072968;28;19939;-85